Wilson, KS (67490)

6:43 PM CDT on August 31, 2016 (GMT -0500)
Postrock Highway | | Change Station
Active Advisory: Areal Flood Warning Active Notice: Record Report, Local Storm Report

Elev 1522 ft 39.01 °N, 98.52 °W | Updated 3 minutes ago

Partly Cloudy
Partly Cloudy
74.1 °F
Feels Like 73 °F
N
3.0
Wind Variable Wind from ESE
Gusts 4.0 mph

Today
High -- | Low -- °F
--% Chance of Precip.
Yesterday
High -- | Low -- °F
Precip. -- in
Pressure 30.08 in
Visibility 10.0 miles
Clouds Few 1500 ft
Heat Index 73 °F
Dew Point 70 °F
Humidity 86%
Rainfall 0.07 in
Snow Depth Not available.
7:02 AM 8:04 PM
Waning Crescent, 0% visible
METAR KRSL 312253Z AUTO 08012KT 10SM FEW015 24/20 A3012 RMK AO2 SLP185 T02390200
Pressure 30.08 in
Visibility 10.0 miles
Clouds Few 1500 ft
Heat Index 73 °F
Dew Point 70 °F
Humidity 86%
Rainfall 0.07 in
Snow Depth Not available.
7:02 AM 8:04 PM
Waning Crescent, 0% visible
METAR KRSL 312253Z AUTO 08012KT 10SM FEW015 24/20 A3012 RMK AO2 SLP185 T02390200

10-Day Weather Forecast

Almanac

Astronomy

Aug. 31, 2016 Rise Set
Actual Time
Civil Twilight
Nautical Twilight
Astronomical Twilight
Moon
Length of Visible Light
Length of Day
Tomorrow will be .
, % of the Moon is Illuminated

Today's Extremes

State Highs State Lows

Community

WunderPhotos

Upload Photos

1,936,215 photos uploaded!

WunderBlog® & News

Nearby

Air Quality

  Air Quality AQ Index Pollutant
Not available.

Snow Depth

Station Depth Elevation

Earthquake Activity

City Distance Mag. Time & Date
Minimum magnitude displayed is 2.5.

Coastal Water Temperatures

Place Temperature

Stations

Nearby Weather Stations

Station Location Temp. Windchill Dew Point Humidity Wind Precip. Elev Updated Type
                   

Watches & Warnings

Areal Flood Warning
Issued: 3:19 PM CDT Aug. 31, 2016 – National Weather Service

... A Flood Warning remains in effect until 815 PM CDT for Ellsworth
County...

Very heavy rainfall on the order of 3 to 5 inches... with locally
higher amounts... has fallen across large portions of Ellsworth
County since yesterday late afternoon. Consequently... excessive
runoff is likely producing areas of flooding of small creeks and
streams... streets... country roads as well as other poor drainage
areas and low lying spots across the County.

Some locations that may experience flooding include...
Ellsworth... Wilson... Kanopolis... Holyrood... Geneseo... Lorraine...
Kanopolis Lake... Ellsworth Airport and Kanopolis State Park.

Additional hit-or-miss showers and thunderstorms with locally heavy
rain are expected this afternoon across the area... which will only
aggravate ongoing flooding issues.

Precautionary/preparedness actions...

Turn around... don't drown when encountering flooded roads. Most flood
deaths occur in vehicles.


Lat... Lon 3887 9793 3852 9793 3852 9848 3887 9848


Kleinsasser